sensor_id;sensor_type;location;lat;lon;timestamp;pressure;altitude;pressure_sealevel;temperature;humidity
40998;BME280;26740;45.944;12.480;2022-11-20T00:01:12;100393.66;;;8.64;100.00
40998;BME280;26740;45.944;12.480;2022-11-20T00:03:38;100394.16;;;8.61;100.00
40998;BME280;26740;45.944;12.480;2022-11-20T00:06:07;100395.75;;;8.57;100.00
40998;BME280;26740;45.944;12.480;2022-11-20T00:08:33;100396.28;;;8.42;100.00
40998;BME280;26740;45.944;12.480;2022-11-20T00:11:06;100399.31;;;8.40;100.00
40998;BME280;26740;45.944;12.480;2022-11-20T00:13:32;100392.22;;;8.44;100.00
40998;BME280;26740;45.944;12.480;2022-11-20T00:16:00;100401.69;;;8.48;100.00
40998;BME280;26740;45.944;12.480;2022-11-20T00:18:26;100412.09;;;8.29;100.00
40998;BME280;26740;45.944;12.480;2022-11-20T00:20:52;100407.06;;;7.97;100.00
40998;BME280;26740;45.944;12.480;2022-11-20T00:23:18;100408.88;;;7.92;100.00
40998;BME280;26740;45.944;12.480;2022-11-20T00:25:44;100406.88;;;7.87;100.00
40998;BME280;26740;45.944;12.480;2022-11-20T00:28:09;100406.03;;;7.87;100.00
40998;BME280;26740;45.944;12.480;2022-11-20T00:30:35;100414.22;;;7.82;100.00
40998;BME280;26740;45.944;12.480;2022-11-20T00:33:00;100423.97;;;7.72;100.00
40998;BME280;26740;45.944;12.480;2022-11-20T00:35:26;100418.78;;;7.76;100.00
40998;BME280;26740;45.944;12.480;2022-11-20T00:37:51;100422.69;;;7.63;100.00
40998;BME280;26740;45.944;12.480;2022-11-20T00:40:17;100420.03;;;7.56;100.00
40998;BME280;26740;45.944;12.480;2022-11-20T00:42:43;100421.22;;;7.60;100.00
40998;BME280;26740;45.944;12.480;2022-11-20T00:45:08;100414.88;;;7.60;100.00
40998;BME280;26740;45.944;12.480;2022-11-20T00:47:34;100422.44;;;7.65;100.00
40998;BME280;26740;45.944;12.480;2022-11-20T00:49:59;100418.09;;;7.57;100.00
40998;BME280;26740;45.944;12.480;2022-11-20T00:52:25;100418.28;;;7.50;100.00
40998;BME280;26740;45.944;12.480;2022-11-20T00:54:50;100425.47;;;7.51;100.00
40998;BME280;26740;45.944;12.480;2022-11-20T00:57:16;100422.97;;;7.38;100.00
40998;BME280;26740;45.944;12.480;2022-11-20T00:59:42;100434.97;;;7.32;100.00
40998;BME280;26740;45.944;12.480;2022-11-20T01:02:07;100438.00;;;7.18;100.00
40998;BME280;26740;45.944;12.480;2022-11-20T01:04:33;100443.97;;;7.15;100.00
40998;BME280;26740;45.944;12.480;2022-11-20T01:06:58;100444.09;;;7.09;100.00
40998;BME280;26740;45.944;12.480;2022-11-20T01:09:24;100450.09;;;7.06;100.00
40998;BME280;26740;45.944;12.480;2022-11-20T01:11:50;100451.19;;;7.05;100.00
40998;BME280;26740;45.944;12.480;2022-11-20T01:14:18;100454.16;;;6.91;100.00
40998;BME280;26740;45.944;12.480;2022-11-20T01:16:46;100455.13;;;6.97;100.00
40998;BME280;26740;45.944;12.480;2022-11-20T01:19:16;100461.16;;;6.94;100.00
40998;BME280;26740;45.944;12.480;2022-11-20T01:21:43;100459.78;;;6.84;100.00
40998;BME280;26740;45.944;12.480;2022-11-20T01:24:14;100458.16;;;6.95;100.00
40998;BME280;26740;45.944;12.480;2022-11-20T01:26:42;100461.38;;;6.92;100.00
40998;BME280;26740;45.944;12.480;2022-11-20T01:29:19;100464.25;;;6.97;100.00
40998;BME280;26740;45.944;12.480;2022-11-20T01:31:45;100467.00;;;7.09;100.00
40998;BME280;26740;45.944;12.480;2022-11-20T01:34:17;100467.66;;;7.11;100.00
40998;BME280;26740;45.944;12.480;2022-11-20T01:36:44;100467.75;;;7.16;100.00
40998;BME280;26740;45.944;12.480;2022-11-20T01:39:13;100469.31;;;7.24;100.00
40998;BME280;26740;45.944;12.480;2022-11-20T01:41:40;100482.53;;;7.22;100.00
40998;BME280;26740;45.944;12.480;2022-11-20T01:44:54;100479.72;;;6.98;100.00
40998;BME280;26740;45.944;12.480;2022-11-20T01:47:25;100477.34;;;7.02;100.00
40998;BME280;26740;45.944;12.480;2022-11-20T01:49:59;100483.34;;;6.99;100.00
40998;BME280;26740;45.944;12.480;2022-11-20T01:52:50;100490.53;;;7.00;100.00
40998;BME280;26740;45.944;12.480;2022-11-20T01:55:23;100490.53;;;7.00;100.00
40998;BME280;26740;45.944;12.480;2022-11-20T01:57:50;100484.88;;;6.95;100.00
40998;BME280;26740;45.944;12.480;2022-11-20T02:00:18;100480.94;;;6.91;100.00
40998;BME280;26740;45.944;12.480;2022-11-20T02:02:50;100482.97;;;6.83;100.00
40998;BME280;26740;45.944;12.480;2022-11-20T02:05:36;100484.03;;;6.82;100.00
40998;BME280;26740;45.944;12.480;2022-11-20T02:08:05;100480.16;;;6.72;100.00
40998;BME280;26740;45.944;12.480;2022-11-20T02:10:32;100479.94;;;6.73;100.00
40998;BME280;26740;45.944;12.480;2022-11-20T02:12:58;100479.00;;;6.79;100.00
40998;BME280;26740;45.944;12.480;2022-11-20T02:15:43;100483.25;;;6.63;100.00
40998;BME280;26740;45.944;12.480;2022-11-20T02:18:11;100482.28;;;6.58;100.00
40998;BME280;26740;45.944;12.480;2022-11-20T02:20:42;100484.06;;;6.52;100.00
40998;BME280;26740;45.944;12.480;2022-11-20T02:23:12;100479.72;;;6.44;100.00
40998;BME280;26740;45.944;12.480;2022-11-20T02:25:42;100482.56;;;6.38;100.00
40998;BME280;26740;45.944;12.480;2022-11-20T02:28:09;100478.25;;;6.30;100.00
40998;BME280;26740;45.944;12.480;2022-11-20T02:30:35;100480.28;;;6.35;100.00
40998;BME280;26740;45.944;12.480;2022-11-20T02:33:01;100485.72;;;6.41;100.00
40998;BME280;26740;45.944;12.480;2022-11-20T02:37:54;100481.22;;;6.29;100.00
40998;BME280;26740;45.944;12.480;2022-11-20T02:40:20;100483.38;;;6.26;100.00
40998;BME280;26740;45.944;12.480;2022-11-20T02:42:47;100480.75;;;6.32;100.00
40998;BME280;26740;45.944;12.480;2022-11-20T02:45:12;100486.16;;;6.38;100.00
40998;BME280;26740;45.944;12.480;2022-11-20T02:47:38;100483.78;;;6.42;100.00
40998;BME280;26740;45.944;12.480;2022-11-20T02:50:05;100489.34;;;6.54;100.00
40998;BME280;26740;45.944;12.480;2022-11-20T02:52:31;100490.94;;;6.61;100.00
40998;BME280;26740;45.944;12.480;2022-11-20T02:54:56;100485.19;;;6.63;100.00
40998;BME280;26740;45.944;12.480;2022-11-20T02:57:22;100493.09;;;6.59;100.00
40998;BME280;26740;45.944;12.480;2022-11-20T02:59:47;100489.50;;;6.59;100.00
40998;BME280;26740;45.944;12.480;2022-11-20T03:02:13;100490.47;;;6.64;100.00
40998;BME280;26740;45.944;12.480;2022-11-20T03:04:39;100490.09;;;6.61;100.00
40998;BME280;26740;45.944;12.480;2022-11-20T03:07:04;100477.63;;;6.58;100.00
40998;BME280;26740;45.944;12.480;2022-11-20T03:09:30;100482.28;;;6.58;100.00
40998;BME280;26740;45.944;12.480;2022-11-20T03:11:56;100478.00;;;6.62;100.00
40998;BME280;26740;45.944;12.480;2022-11-20T03:14:21;100480.75;;;6.62;100.00
40998;BME280;26740;45.944;12.480;2022-11-20T03:16:47;100479.28;;;6.59;100.00
40998;BME280;26740;45.944;12.480;2022-11-20T03:19:13;100488.97;;;6.50;100.00
40998;BME280;26740;45.944;12.480;2022-11-20T03:21:39;100489.91;;;6.44;100.00
40998;BME280;26740;45.944;12.480;2022-11-20T03:24:05;100485.63;;;6.48;100.00
40998;BME280;26740;45.944;12.480;2022-11-20T03:26:31;100486.69;;;6.47;100.00
40998;BME280;26740;45.944;12.480;2022-11-20T03:28:59;100501.88;;;6.38;100.00
40998;BME280;26740;45.944;12.480;2022-11-20T03:31:30;100499.06;;;6.26;100.00
40998;BME280;26740;45.944;12.480;2022-11-20T03:33:57;100498.41;;;6.12;100.00
40998;BME280;26740;45.944;12.480;2022-11-20T03:36:24;100496.13;;;6.09;100.00
40998;BME280;26740;45.944;12.480;2022-11-20T03:38:53;100495.91;;;6.11;100.00
40998;BME280;26740;45.944;12.480;2022-11-20T03:41:21;100493.59;;;6.07;100.00
40998;BME280;26740;45.944;12.480;2022-11-20T03:43:52;100493.91;;;5.99;100.00
40998;BME280;26740;45.944;12.480;2022-11-20T03:46:19;100492.56;;;5.83;100.00
40998;BME280;26740;45.944;12.480;2022-11-20T03:48:44;100496.31;;;5.89;100.00
40998;BME280;26740;45.944;12.480;2022-11-20T03:51:13;100498.59;;;5.99;100.00
40998;BME280;26740;45.944;12.480;2022-11-20T03:53:40;100505.53;;;6.01;100.00
40998;BME280;26740;45.944;12.480;2022-11-20T03:56:07;100514.28;;;5.98;100.00
40998;BME280;26740;45.944;12.480;2022-11-20T03:58:34;100507.00;;;6.04;100.00
40998;BME280;26740;45.944;12.480;2022-11-20T04:01:16;100511.09;;;5.95;100.00
40998;BME280;26740;45.944;12.480;2022-11-20T04:03:43;100502.22;;;5.93;100.00
40998;BME280;26740;45.944;12.480;2022-11-20T04:06:10;100502.06;;;5.87;100.00
40998;BME280;26740;45.944;12.480;2022-11-20T04:08:36;100510.25;;;5.94;100.00
40998;BME280;26740;45.944;12.480;2022-11-20T04:11:10;100506.25;;;5.97;100.00
40998;BME280;26740;45.944;12.480;2022-11-20T04:13:37;100506.88;;;5.92;100.00
40998;BME280;26740;45.944;12.480;2022-11-20T04:16:03;100505.91;;;5.86;100.00
40998;BME280;26740;45.944;12.480;2022-11-20T04:18:29;100506.56;;;5.82;100.00
40998;BME280;26740;45.944;12.480;2022-11-20T04:20:59;100503.75;;;5.88;100.00
40998;BME280;26740;45.944;12.480;2022-11-20T04:23:25;100497.56;;;5.93;100.00
40998;BME280;26740;45.944;12.480;2022-11-20T04:25:51;100499.41;;;5.99;100.00
40998;BME280;26740;45.944;12.480;2022-11-20T04:28:17;100505.06;;;6.04;100.00
40998;BME280;26740;45.944;12.480;2022-11-20T04:30:43;100505.53;;;6.01;100.00
40998;BME280;26740;45.944;12.480;2022-11-20T04:33:09;100500.78;;;6.08;100.00
40998;BME280;26740;45.944;12.480;2022-11-20T04:35:35;100502.38;;;6.16;100.00
40998;BME280;26740;45.944;12.480;2022-11-20T04:38:01;100499.72;;;6.10;100.00
40998;BME280;26740;45.944;12.480;2022-11-20T04:40:28;100503.88;;;6.00;100.00
40998;BME280;26740;45.944;12.480;2022-11-20T04:42:54;100499.31;;;5.87;100.00
40998;BME280;26740;45.944;12.480;2022-11-20T04:45:20;100506.00;;;5.98;100.00
40998;BME280;26740;45.944;12.480;2022-11-20T04:47:46;100494.50;;;6.01;100.00
40998;BME280;26740;45.944;12.480;2022-11-20T04:50:11;100496.66;;;5.99;100.00
40998;BME280;26740;45.944;12.480;2022-11-20T04:52:37;100494.34;;;5.96;100.00
40998;BME280;26740;45.944;12.480;2022-11-20T04:55:03;100493.78;;;5.87;100.00
40998;BME280;26740;45.944;12.480;2022-11-20T04:57:29;100486.75;;;5.92;100.00
40998;BME280;26740;45.944;12.480;2022-11-20T04:59:55;100488.63;;;5.98;100.00
40998;BME280;26740;45.944;12.480;2022-11-20T05:02:21;100484.38;;;5.95;100.00
40998;BME280;26740;45.944;12.480;2022-11-20T05:04:47;100494.34;;;5.96;100.00
40998;BME280;26740;45.944;12.480;2022-11-20T05:07:12;100491.50;;;5.84;100.00
40998;BME280;26740;45.944;12.480;2022-11-20T05:09:38;100490.66;;;5.84;100.00
40998;BME280;26740;45.944;12.480;2022-11-20T05:12:04;100494.72;;;6.00;100.00
40998;BME280;26740;45.944;12.480;2022-11-20T05:14:29;100491.00;;;6.13;100.00
40998;BME280;26740;45.944;12.480;2022-11-20T05:16:55;100498.91;;;6.21;100.00
40998;BME280;26740;45.944;12.480;2022-11-20T05:19:21;100498.91;;;6.21;100.00
40998;BME280;26740;45.944;12.480;2022-11-20T05:21:46;100512.94;;;6.19;100.00
40998;BME280;26740;45.944;12.480;2022-11-20T05:24:12;100492.28;;;6.40;100.00
40998;BME280;26740;45.944;12.480;2022-11-20T05:26:38;100508.38;;;6.43;100.00
40998;BME280;26740;45.944;12.480;2022-11-20T05:29:03;100512.84;;;6.44;100.00
40998;BME280;26740;45.944;12.480;2022-11-20T05:31:29;100499.78;;;6.52;100.00
40998;BME280;26740;45.944;12.480;2022-11-20T05:33:56;100499.78;;;6.52;100.00
40998;BME280;26740;45.944;12.480;2022-11-20T05:36:22;100510.06;;;6.44;100.00
40998;BME280;26740;45.944;12.480;2022-11-20T05:38:48;100504.03;;;6.36;100.00
40998;BME280;26740;45.944;12.480;2022-11-20T05:41:16;100510.63;;;6.35;100.00
40998;BME280;26740;45.944;12.480;2022-11-20T05:43:44;100508.22;;;6.38;100.00
40998;BME280;26740;45.944;12.480;2022-11-20T05:46:12;100506.72;;;6.42;100.00
40998;BME280;26740;45.944;12.480;2022-11-20T05:48:39;100510.91;;;6.45;100.00
40998;BME280;26740;45.944;12.480;2022-11-20T05:51:07;100507.78;;;6.41;100.00
40998;BME280;26740;45.944;12.480;2022-11-20T05:53:34;100507.53;;;6.43;100.00
40998;BME280;26740;45.944;12.480;2022-11-20T05:58:28;100515.22;;;6.22;100.00
40998;BME280;26740;45.944;12.480;2022-11-20T06:00:54;100514.84;;;6.19;100.00
40998;BME280;26740;45.944;12.480;2022-11-20T06:03:19;100524.53;;;6.10;100.00
40998;BME280;26740;45.944;12.480;2022-11-20T06:05:45;100520.22;;;5.95;100.00
40998;BME280;26740;45.944;12.480;2022-11-20T06:08:12;100526.38;;;5.97;100.00
40998;BME280;26740;45.944;12.480;2022-11-20T06:10:37;100528.47;;;5.95;100.00
40998;BME280;26740;45.944;12.480;2022-11-20T06:13:03;100527.56;;;6.01;100.00
40998;BME280;26740;45.944;12.480;2022-11-20T06:15:28;100523.31;;;6.05;100.00
40998;BME280;26740;45.944;12.480;2022-11-20T06:17:55;100519.59;;;5.93;100.00
40998;BME280;26740;45.944;12.480;2022-11-20T06:20:21;100522.81;;;5.90;100.00
40998;BME280;26740;45.944;12.480;2022-11-20T06:22:47;100532.09;;;5.77;100.00
40998;BME280;26740;45.944;12.480;2022-11-20T06:25:13;100533.66;;;5.66;100.00
40998;BME280;26740;45.944;12.480;2022-11-20T06:27:38;100532.09;;;5.77;100.00
40998;BME280;26740;45.944;12.480;2022-11-20T06:30:04;100536.13;;;5.75;100.00
40998;BME280;26740;45.944;12.480;2022-11-20T06:32:30;100544.44;;;5.68;100.00
40998;BME280;26740;45.944;12.480;2022-11-20T06:34:55;100547.75;;;5.58;100.00
40998;BME280;26740;45.944;12.480;2022-11-20T06:37:21;100551.78;;;5.56;100.00
40998;BME280;26740;45.944;12.480;2022-11-20T06:39:46;100555.00;;;5.53;100.00
40998;BME280;26740;45.944;12.480;2022-11-20T06:42:12;100556.91;;;5.52;100.00
40998;BME280;26740;45.944;12.480;2022-11-20T06:44:38;100562.41;;;5.52;100.00
40998;BME280;26740;45.944;12.480;2022-11-20T06:47:03;100563.50;;;5.51;100.00
40998;BME280;26740;45.944;12.480;2022-11-20T06:49:29;100568.81;;;5.46;100.00
40998;BME280;26740;45.944;12.480;2022-11-20T06:51:54;100580.28;;;5.43;100.00
40998;BME280;26740;45.944;12.480;2022-11-20T06:54:20;100582.38;;;5.47;100.00
40998;BME280;26740;45.944;12.480;2022-11-20T06:56:49;100578.63;;;5.42;100.00
40998;BME280;26740;45.944;12.480;2022-11-20T06:59:15;100585.50;;;5.51;100.00
40998;BME280;26740;45.944;12.480;2022-11-20T07:01:40;100593.56;;;5.53;100.00
40998;BME280;26740;45.944;12.480;2022-11-20T07:04:06;100596.16;;;5.47;100.00
40998;BME280;26740;45.944;12.480;2022-11-20T07:06:32;100596.53;;;5.51;100.00
40998;BME280;26740;45.944;12.480;2022-11-20T07:08:57;100612.66;;;5.47;100.00
40998;BME280;26740;45.944;12.480;2022-11-20T07:11:23;100611.34;;;5.50;100.00
40998;BME280;26740;45.944;12.480;2022-11-20T07:13:49;100613.63;;;5.60;100.00
40998;BME280;26740;45.944;12.480;2022-11-20T07:16:14;100619.34;;;5.58;100.00
40998;BME280;26740;45.944;12.480;2022-11-20T07:18:40;100627.47;;;5.72;100.00
40998;BME280;26740;45.944;12.480;2022-11-20T07:21:07;100629.19;;;5.73;100.00
40998;BME280;26740;45.944;12.480;2022-11-20T07:23:34;100624.13;;;6.13;100.00
40998;BME280;26740;45.944;12.480;2022-11-20T07:26:07;100635.81;;;7.13;100.00
40998;BME280;26740;45.944;12.480;2022-11-20T07:28:33;100642.53;;;7.71;100.00
40998;BME280;26740;45.944;12.480;2022-11-20T07:30:59;100644.13;;;8.02;100.00
40998;BME280;26740;45.944;12.480;2022-11-20T07:33:25;100662.66;;;8.02;100.00
40998;BME280;26740;45.944;12.480;2022-11-20T07:35:50;100660.38;;;8.10;100.00
40998;BME280;26740;45.944;12.480;2022-11-20T07:38:16;100663.94;;;8.58;100.00
40998;BME280;26740;45.944;12.480;2022-11-20T07:40:42;100670.88;;;8.84;100.00
40998;BME280;26740;45.944;12.480;2022-11-20T07:43:07;100672.25;;;9.27;100.00
40998;BME280;26740;45.944;12.480;2022-11-20T07:45:33;100669.56;;;9.33;100.00
40998;BME280;26740;45.944;12.480;2022-11-20T07:47:58;100672.59;;;9.31;100.00
40998;BME280;26740;45.944;12.480;2022-11-20T07:50:24;100665.53;;;9.40;100.00
40998;BME280;26740;45.944;12.480;2022-11-20T07:52:49;100671.88;;;10.03;100.00
40998;BME280;26740;45.944;12.480;2022-11-20T07:55:16;100680.53;;;10.85;100.00
40998;BME280;26740;45.944;12.480;2022-11-20T07:57:41;100675.38;;;10.94;100.00
40998;BME280;26740;45.944;12.480;2022-11-20T08:00:10;100687.19;;;11.28;100.00
40998;BME280;26740;45.944;12.480;2022-11-20T08:02:40;100685.22;;;11.29;100.00
40998;BME280;26740;45.944;12.480;2022-11-20T08:05:07;100691.06;;;11.54;100.00
40998;BME280;26740;45.944;12.480;2022-11-20T08:07:40;100695.19;;;12.49;100.00
40998;BME280;26740;45.944;12.480;2022-11-20T08:10:08;100692.50;;;12.69;100.00
40998;BME280;26740;45.944;12.480;2022-11-20T08:12:34;100695.75;;;15.04;100.00
40998;BME280;26740;45.944;12.480;2022-11-20T08:15:18;100694.75;;;14.69;100.00
40998;BME280;26740;45.944;12.480;2022-11-20T08:17:44;100703.06;;;14.90;100.00
40998;BME280;26740;45.944;12.480;2022-11-20T08:20:10;100699.06;;;15.11;100.00
40998;BME280;26740;45.944;12.480;2022-11-20T08:22:35;100704.88;;;15.75;91.53
40998;BME280;26740;45.944;12.480;2022-11-20T08:25:01;100710.50;;;16.39;87.78
40998;BME280;26740;45.944;12.480;2022-11-20T08:27:27;100716.16;;;17.35;79.91
40998;BME280;26740;45.944;12.480;2022-11-20T08:29:52;100723.72;;;17.16;79.83
40998;BME280;26740;45.944;12.480;2022-11-20T08:32:18;100729.66;;;18.42;73.46
40998;BME280;26740;45.944;12.480;2022-11-20T08:34:44;100730.41;;;19.73;70.01
40998;BME280;26740;45.944;12.480;2022-11-20T08:37:09;100728.09;;;18.83;71.02
40998;BME280;26740;45.944;12.480;2022-11-20T08:39:35;100735.59;;;19.43;70.10
40998;BME280;26740;45.944;12.480;2022-11-20T08:42:01;100742.66;;;19.68;67.95
40998;BME280;26740;45.944;12.480;2022-11-20T08:44:26;100742.66;;;20.04;67.96
40998;BME280;26740;45.944;12.480;2022-11-20T08:46:52;100744.31;;;20.51;64.81
40998;BME280;26740;45.944;12.480;2022-11-20T08:49:18;100746.38;;;20.90;64.18
40998;BME280;26740;45.944;12.480;2022-11-20T08:51:44;100751.69;;;21.32;60.82
40998;BME280;26740;45.944;12.480;2022-11-20T08:54:10;100759.59;;;21.70;61.12
40998;BME280;26740;45.944;12.480;2022-11-20T08:56:36;100761.28;;;21.71;58.68
40998;BME280;26740;45.944;12.480;2022-11-20T08:59:02;100770.88;;;22.66;57.80
40998;BME280;26740;45.944;12.480;2022-11-20T09:01:28;100771.78;;;22.23;55.82
40998;BME280;26740;45.944;12.480;2022-11-20T09:03:57;100777.78;;;23.12;53.29
40998;BME280;26740;45.944;12.480;2022-11-20T09:06:23;100773.66;;;23.39;52.60
40998;BME280;26740;45.944;12.480;2022-11-20T09:08:53;100766.25;;;22.70;52.93
40998;BME280;26740;45.944;12.480;2022-11-20T09:11:18;100778.81;;;22.90;52.52
40998;BME280;26740;45.944;12.480;2022-11-20T09:13:44;100778.41;;;21.26;55.45
40998;BME280;26740;45.944;12.480;2022-11-20T09:16:09;100774.91;;;19.48;61.32
40998;BME280;26740;45.944;12.480;2022-11-20T09:18:36;100781.19;;;21.48;52.67
40998;BME280;26740;45.944;12.480;2022-11-20T09:21:05;100788.56;;;22.63;53.73
40998;BME280;26740;45.944;12.480;2022-11-20T09:23:33;100789.31;;;23.45;49.40
40998;BME280;26740;45.944;12.480;2022-11-20T09:26:04;100791.66;;;23.94;43.15
40998;BME280;26740;45.944;12.480;2022-11-20T09:28:31;100788.50;;;23.96;45.56
40998;BME280;26740;45.944;12.480;2022-11-20T09:30:58;100790.03;;;23.63;45.15
40998;BME280;26740;45.944;12.480;2022-11-20T09:33:23;100786.88;;;24.28;41.79
40998;BME280;26740;45.944;12.480;2022-11-20T09:35:49;100787.53;;;24.55;38.35
40998;BME280;26740;45.944;12.480;2022-11-20T09:38:15;100793.22;;;23.92;38.09
40998;BME280;26740;45.944;12.480;2022-11-20T09:40:47;100788.56;;;23.19;39.41
40998;BME280;26740;45.944;12.480;2022-11-20T09:46:08;100797.47;;;23.00;40.07
40998;BME280;26740;45.944;12.480;2022-11-20T09:51:36;100789.25;;;23.54;40.82
40998;BME280;26740;45.944;12.480;2022-11-20T09:54:20;100791.47;;;23.40;38.58
40998;BME280;26740;45.944;12.480;2022-11-20T09:56:54;100782.19;;;23.60;41.94
40998;BME280;26740;45.944;12.480;2022-11-20T10:04:56;100789.22;;;21.90;41.85
40998;BME280;26740;45.944;12.480;2022-11-20T10:07:42;100788.09;;;22.52;42.19
40998;BME280;26740;45.944;12.480;2022-11-20T10:10:19;100794.38;;;21.96;42.53
40998;BME280;26740;45.944;12.480;2022-11-20T10:13:27;100785.31;;;23.38;39.67
40998;BME280;26740;45.944;12.480;2022-11-20T10:24:29;100778.53;;;23.30;40.64
40998;BME280;26740;45.944;12.480;2022-11-20T10:29:41;100777.44;;;22.23;42.31
40998;BME280;26740;45.944;12.480;2022-11-20T10:32:19;100773.22;;;21.59;42.46
40998;BME280;26740;45.944;12.480;2022-11-20T10:37:24;100770.13;;;19.99;45.30
40998;BME280;26740;45.944;12.480;2022-11-20T10:40:01;100769.72;;;19.92;47.37
40998;BME280;26740;45.944;12.480;2022-11-20T10:42:37;100769.66;;;20.19;46.89
40998;BME280;26740;45.944;12.480;2022-11-20T10:45:21;100767.19;;;20.72;47.70
40998;BME280;26740;45.944;12.480;2022-11-20T10:48:12;100771.75;;;21.21;45.61
40998;BME280;26740;45.944;12.480;2022-11-20T10:50:48;100760.25;;;21.09;44.86
40998;BME280;26740;45.944;12.480;2022-11-20T10:53:37;100767.84;;;20.23;45.82
40998;BME280;26740;45.944;12.480;2022-11-20T10:56:16;100758.34;;;19.97;46.84
40998;BME280;26740;45.944;12.480;2022-11-20T10:59:04;100753.91;;;20.04;48.92
40998;BME280;26740;45.944;12.480;2022-11-20T11:01:43;100746.91;;;19.79;46.89
40998;BME280;26740;45.944;12.480;2022-11-20T11:04:23;100747.38;;;19.45;47.83
40998;BME280;26740;45.944;12.480;2022-11-20T11:07:01;100756.47;;;18.53;48.60
40998;BME280;26740;45.944;12.480;2022-11-20T11:09:34;100742.38;;;19.00;49.26
40998;BME280;26740;45.944;12.480;2022-11-20T11:12:06;100748.00;;;19.42;49.52
40998;BME280;26740;45.944;12.480;2022-11-20T11:14:42;100739.72;;;19.73;50.29
40998;BME280;26740;45.944;12.480;2022-11-20T11:17:20;100735.22;;;19.86;50.43
40998;BME280;26740;45.944;12.480;2022-11-20T11:20:00;100725.22;;;20.25;51.41
40998;BME280;26740;45.944;12.480;2022-11-20T11:22:32;100728.97;;;20.97;49.88
40998;BME280;26740;45.944;12.480;2022-11-20T11:24:58;100715.53;;;21.02;51.25
40998;BME280;26740;45.944;12.480;2022-11-20T11:27:24;100733.06;;;21.31;47.81
40998;BME280;26740;45.944;12.480;2022-11-20T11:30:01;100728.78;;;21.42;47.03
40998;BME280;26740;45.944;12.480;2022-11-20T11:32:27;100728.34;;;21.09;52.49
40998;BME280;26740;45.944;12.480;2022-11-20T11:35:04;100739.31;;;21.59;47.26
40998;BME280;26740;45.944;12.480;2022-11-20T11:37:37;100726.31;;;20.92;48.64
40998;BME280;26740;45.944;12.480;2022-11-20T11:40:05;100722.84;;;20.18;49.74
40998;BME280;26740;45.944;12.480;2022-11-20T11:42:32;100727.63;;;19.59;49.59
40998;BME280;26740;45.944;12.480;2022-11-20T11:45:00;100715.63;;;19.03;53.50
40998;BME280;26740;45.944;12.480;2022-11-20T11:53:13;100718.41;;;18.28;59.76
40998;BME280;26740;45.944;12.480;2022-11-20T12:04:17;100713.28;;;16.68;58.61
40998;BME280;26740;45.944;12.480;2022-11-20T12:07:00;100708.44;;;16.49;61.23
40998;BME280;26740;45.944;12.480;2022-11-20T12:09:35;100709.63;;;16.67;59.14
40998;BME280;26740;45.944;12.480;2022-11-20T12:12:09;100702.28;;;17.01;63.30
40998;BME280;26740;45.944;12.480;2022-11-20T12:14:41;100694.13;;;16.51;61.40
40998;BME280;26740;45.944;12.480;2022-11-20T12:17:12;100703.38;;;16.22;61.15
40998;BME280;26740;45.944;12.480;2022-11-20T12:19:39;100697.53;;;16.19;61.38
40998;BME280;26740;45.944;12.480;2022-11-20T12:30:24;100690.09;;;16.04;63.88
40998;BME280;26740;45.944;12.480;2022-11-20T12:35:46;100679.94;;;16.13;64.92
40998;BME280;26740;45.944;12.480;2022-11-20T12:51:15;100688.81;;;17.03;62.17
40998;BME280;26740;45.944;12.480;2022-11-20T13:02:02;100678.84;;;16.38;66.39
40998;BME280;26740;45.944;12.480;2022-11-20T13:07:26;100676.91;;;16.34;67.23
40998;BME280;26740;45.944;12.480;2022-11-20T13:09:53;100678.13;;;16.27;66.94
40998;BME280;26740;45.944;12.480;2022-11-20T13:12:49;100672.91;;;16.16;64.50
40998;BME280;26740;45.944;12.480;2022-11-20T13:15:47;100669.03;;;16.11;66.53
40998;BME280;26740;45.944;12.480;2022-11-20T13:18:16;100667.91;;;15.78;67.85
40998;BME280;26740;45.944;12.480;2022-11-20T13:20:44;100666.28;;;15.62;68.55
40998;BME280;26740;45.944;12.480;2022-11-20T13:23:10;100665.41;;;15.77;68.83
40998;BME280;26740;45.944;12.480;2022-11-20T13:25:37;100673.84;;;16.06;71.51
40998;BME280;26740;45.944;12.480;2022-11-20T13:28:27;100672.56;;;15.88;66.61
40998;BME280;26740;45.944;12.480;2022-11-20T13:30:55;100667.50;;;15.90;69.59
40998;BME280;26740;45.944;12.480;2022-11-20T13:35:58;100665.69;;;15.75;67.35
40998;BME280;26740;45.944;12.480;2022-11-20T13:38:24;100656.00;;;15.57;67.92
40998;BME280;26740;45.944;12.480;2022-11-20T13:40:56;100655.19;;;15.02;73.68
40998;BME280;26740;45.944;12.480;2022-11-20T13:43:34;100658.88;;;14.92;73.26
40998;BME280;26740;45.944;12.480;2022-11-20T13:46:06;100651.94;;;14.84;73.46
40998;BME280;26740;45.944;12.480;2022-11-20T13:48:39;100651.09;;;14.78;73.59
40998;BME280;26740;45.944;12.480;2022-11-20T13:51:14;100657.59;;;14.69;77.25
40998;BME280;26740;45.944;12.480;2022-11-20T13:54:00;100665.16;;;14.68;76.32
40998;BME280;26740;45.944;12.480;2022-11-20T14:02:18;100665.19;;;14.17;78.23
40998;BME280;26740;45.944;12.480;2022-11-20T14:04:47;100658.78;;;13.96;78.89
40998;BME280;26740;45.944;12.480;2022-11-20T14:07:16;100664.69;;;13.84;80.03
40998;BME280;26740;45.944;12.480;2022-11-20T14:09:51;100659.31;;;13.31;85.41
40998;BME280;26740;45.944;12.480;2022-11-20T14:12:19;100663.78;;;13.32;85.26
40998;BME280;26740;45.944;12.480;2022-11-20T14:14:51;100652.16;;;12.82;91.53
40998;BME280;26740;45.944;12.480;2022-11-20T14:17:34;100650.44;;;12.66;91.16